Time;durP1;ratioP1;P1;durP2;ratioP2;P2;SDS_P1;SDS_P2;PMS_P1;PMS_P2;Temp;Humidity;BMP_temperature;BMP_pressure;BME280_temperature;BME280_humidity;BME280_pressure;Samples;Min_cycle;Max_cycle;Signal;HPM_P1;HPM_P2
2022/02/08 00:00:03;;;;;;;4.60;4.30;;;;;;;;;;753688;77;24754;-82
2022/02/08 00:01:04;;;;;;;4.78;4.40;;;;;;;;;;764194;77;26331;-82
2022/02/08 00:02:10;;;;;;;4.80;4.50;;;;;;;;;;759008;77;24756;-82
2022/02/08 00:03:12;;;;;;;5.10;4.67;;;;;;;;;;757733;78;26355;-82
2022/02/08 00:04:14;;;;;;;4.28;3.98;;;;;;;;;;759213;77;26417;-83
2022/02/08 00:05:19;;;;;;;4.70;4.30;;;;;;;;;;758537;77;26852;-84
2022/02/08 00:07:36;;;;;;;4.87;4.47;;;;;;;;;;754720;78;26949;-82
2022/02/08 00:08:39;;;;;;;4.30;4.00;;;;;;;;;;763902;77;26261;-85
2022/02/08 00:09:41;;;;;;;4.97;4.58;;;;;;;;;;754363;78;24404;-83
2022/02/08 00:10:46;;;;;;;4.80;4.47;;;;;;;;;;756340;77;26340;-84
2022/02/08 00:11:48;;;;;;;4.95;4.60;;;;;;;;;;766691;77;24749;-82
2022/02/08 00:12:53;;;;;;;5.17;4.80;;;;;;;;;;766588;77;26847;-83
2022/02/08 00:13:55;;;;;;;5.08;4.67;;;;;;;;;;755127;77;26351;-85
2022/02/08 00:14:58;;;;;;;4.60;4.20;;;;;;;;;;767587;76;26257;-83
2022/02/08 00:16:01;;;;;;;5.00;4.60;;;;;;;;;;763997;76;26335;-84
2022/02/08 00:17:05;;;;;;;4.70;4.30;;;;;;;;;;767764;76;26264;-84
2022/02/08 00:18:08;;;;;;;6.53;4.60;;;;;;;;;;762115;76;24695;-84
2022/02/08 00:19:10;;;;;;;5.12;4.72;;;;;;;;;;751698;78;26755;-83
2022/02/08 00:20:13;;;;;;;5.20;4.72;;;;;;;;;;757960;77;26363;-84
2022/02/08 00:21:16;;;;;;;5.10;4.70;;;;;;;;;;757889;77;26336;-83
2022/02/08 00:22:19;;;;;;;4.92;4.47;;;;;;;;;;758491;77;24682;-83
2022/02/08 00:23:21;;;;;;;5.20;4.70;;;;;;;;;;748113;78;26774;-86
2022/02/08 00:24:24;;;;;;;5.45;4.62;;;;;;;;;;762879;77;26257;-85
2022/02/08 00:25:27;;;;;;;4.90;4.60;;;;;;;;;;749204;78;26458;-85
2022/02/08 00:26:29;;;;;;;4.55;4.25;;;;;;;;;;759431;76;26379;-86
2022/02/08 00:27:33;;;;;;;5.03;4.12;;;;;;;;;;754705;77;26420;-84
2022/02/08 00:28:35;;;;;;;5.22;4.50;;;;;;;;;;758271;77;26382;-82
2022/02/08 00:29:38;;;;;;;5.10;4.70;;;;;;;;;;754073;78;26378;-84
2022/02/08 00:30:41;;;;;;;4.17;3.87;;;;;;;;;;757680;77;26320;-84
2022/02/08 00:31:43;;;;;;;4.60;4.28;;;;;;;;;;754638;78;26324;-82
2022/02/08 00:32:46;;;;;;;4.50;4.10;;;;;;;;;;757850;77;26331;-82
2022/02/08 00:33:51;;;;;;;4.80;4.50;;;;;;;;;;753630;77;26791;-83
2022/02/08 00:34:53;;;;;;;4.60;4.15;;;;;;;;;;755319;77;26329;-83
2022/02/08 00:35:56;;;;;;;4.75;4.20;;;;;;;;;;754026;77;26379;-83
2022/02/08 00:36:59;;;;;;;6.83;4.67;;;;;;;;;;750260;77;26829;-85
2022/02/08 00:38:04;;;;;;;5.20;4.80;;;;;;;;;;757923;78;26265;-83
2022/02/08 00:39:08;;;;;;;4.58;4.25;;;;;;;;;;757993;78;26460;-83
2022/02/08 00:40:11;;;;;;;5.00;4.60;;;;;;;;;;756943;77;26774;-83
2022/02/08 00:41:13;;;;;;;5.55;4.58;;;;;;;;;;748550;77;26394;-82
2022/02/08 00:42:16;;;;;;;4.55;4.15;;;;;;;;;;757906;76;26353;-84
2022/02/08 00:43:25;;;;;;;6.80;4.62;;;;;;;;;;751125;78;26411;-87
2022/02/08 00:44:31;;;;;;;5.00;4.50;;;;;;;;;;752016;77;26541;-85
2022/02/08 00:45:45;;;;;;;4.87;4.25;;;;;;;;;;752550;78;24794;-82
2022/02/08 00:47:44;;;;;;;4.70;4.40;;;;;;;;;;736659;79;26339;-82
2022/02/08 00:49:05;;;;;;;4.20;4.00;;;;;;;;;;736750;80;27139;-83
2022/02/08 00:49:52;;;;;;;4.20;3.90;;;;;;;;;;727784;79;26397;-85
2022/02/08 00:50:55;;;;;;;4.95;4.47;;;;;;;;;;736754;79;26437;-83
2022/02/08 00:52:06;;;;;;;4.65;4.35;;;;;;;;;;736896;80;26366;-81
2022/02/08 00:53:02;;;;;;;4.55;4.25;;;;;;;;;;735330;79;26306;-82
2022/02/08 00:54:05;;;;;;;4.65;4.10;;;;;;;;;;736841;79;26420;-83
2022/02/08 00:55:10;;;;;;;5.30;4.40;;;;;;;;;;736771;79;26416;-83
2022/02/08 00:56:12;;;;;;;4.53;4.15;;;;;;;;;;736637;79;26648;-80
2022/02/08 00:57:15;;;;;;;4.70;4.20;;;;;;;;;;736709;80;26788;-81
2022/02/08 00:58:18;;;;;;;4.75;4.40;;;;;;;;;;736763;79;26338;-83
2022/02/08 00:59:21;;;;;;;4.47;4.08;;;;;;;;;;736973;79;26345;-82
2022/02/08 01:00:24;;;;;;;4.58;4.22;;;;;;;;;;763883;77;26320;-83
2022/02/08 01:01:27;;;;;;;4.55;4.15;;;;;;;;;;751737;78;26907;-84
2022/02/08 01:02:32;;;;;;;4.20;3.90;;;;;;;;;;763020;76;26347;-84
2022/02/08 01:03:35;;;;;;;5.83;4.20;;;;;;;;;;754035;78;26320;-84
2022/02/08 01:04:38;;;;;;;4.20;3.90;;;;;;;;;;750127;78;26379;-86
2022/02/08 01:05:46;;;;;;;3.87;3.67;;;;;;;;;;748172;77;26266;-82
2022/02/08 01:06:47;;;;;;;4.72;4.33;;;;;;;;;;761165;76;26341;-81
2022/02/08 01:07:50;;;;;;;4.50;4.10;;;;;;;;;;750812;76;26324;-83
2022/02/08 01:09:03;;;;;;;4.37;3.98;;;;;;;;;;758543;77;26991;-83
2022/02/08 01:10:00;;;;;;;4.40;4.00;;;;;;;;;;754149;77;24801;-81
2022/02/08 01:11:04;;;;;;;7.42;3.70;;;;;;;;;;754770;77;24908;-82
2022/02/08 01:12:07;;;;;;;4.47;4.08;;;;;;;;;;758141;77;26333;-83
2022/02/08 01:13:10;;;;;;;4.92;4.62;;;;;;;;;;757808;76;26680;-85
2022/02/08 01:14:15;;;;;;;4.00;3.70;;;;;;;;;;759229;77;27024;-83
2022/02/08 01:15:18;;;;;;;4.30;4.00;;;;;;;;;;761092;78;26355;-84
2022/02/08 01:16:21;;;;;;;4.45;4.05;;;;;;;;;;755356;77;26793;-86
2022/02/08 01:17:25;;;;;;;4.10;3.70;;;;;;;;;;759695;77;26421;-83
2022/02/08 01:18:29;;;;;;;4.05;3.75;;;;;;;;;;753794;77;26351;-83
2022/02/08 01:19:32;;;;;;;4.87;4.20;;;;;;;;;;748679;78;26324;-84
2022/02/08 01:20:37;;;;;;;4.20;3.90;;;;;;;;;;755303;78;26352;-84
2022/02/08 01:21:39;;;;;;;4.78;4.47;;;;;;;;;;758128;77;26317;-82
2022/02/08 01:22:42;;;;;;;3.85;3.65;;;;;;;;;;758830;76;26273;-84
2022/02/08 01:23:45;;;;;;;4.20;3.80;;;;;;;;;;763765;77;26426;-82
2022/02/08 01:24:49;;;;;;;4.00;3.70;;;;;;;;;;757479;78;26817;-84
2022/02/08 01:25:57;;;;;;;4.37;3.98;;;;;;;;;;761641;77;26308;-83
2022/02/08 01:27:08;;;;;;;4.05;3.65;;;;;;;;;;758266;78;26353;-80
2022/02/08 01:28:12;;;;;;;4.28;3.90;;;;;;;;;;749715;78;26356;-82
2022/02/08 01:29:37;;;;;;;5.22;4.75;;;;;;;;;;753267;78;26789;-82
2022/02/08 01:30:41;;;;;;;5.00;4.60;;;;;;;;;;750856;78;26324;-82
2022/02/08 01:31:37;;;;;;;4.30;4.00;;;;;;;;;;755712;76;26383;-83
2022/02/08 01:32:56;;;;;;;4.85;4.55;;;;;;;;;;763160;76;26324;-83
2022/02/08 01:37:44;;;;;;;4.50;4.20;;;;;;;;;;763168;76;26320;-82
2022/02/08 01:38:33;;;;;;;4.20;4.00;;;;;;;;;;755583;77;26335;-83
2022/02/08 01:39:45;;;;;;;5.53;4.35;;;;;;;;;;759369;76;26281;-84
2022/02/08 01:41:10;;;;;;;4.40;4.08;;;;;;;;;;755201;78;26428;-80
2022/02/08 01:44:58;;;;;;;4.65;4.35;;;;;;;;;;762226;77;26265;-83
2022/02/08 01:48:08;;;;;;;4.00;3.70;;;;;;;;;;728680;80;26346;-84
2022/02/08 01:49:28;;;;;;;5.00;4.70;;;;;;;;;;747033;78;26331;-84
2022/02/08 01:50:16;;;;;;;4.50;4.10;;;;;;;;;;748204;77;26849;-85
2022/02/08 01:51:19;;;;;;;4.47;4.17;;;;;;;;;;751386;79;26768;-83
2022/02/08 01:52:22;;;;;;;4.75;4.37;;;;;;;;;;751266;77;26597;-83
2022/02/08 01:53:24;;;;;;;4.90;4.50;;;;;;;;;;751490;78;26413;-84
2022/02/08 01:54:27;;;;;;;4.60;4.20;;;;;;;;;;758255;77;26312;-83
2022/02/08 01:55:30;;;;;;;4.75;4.35;;;;;;;;;;758060;77;26731;-82
2022/02/08 01:56:35;;;;;;;4.75;4.42;;;;;;;;;;752293;77;26356;-83
2022/02/08 01:57:39;;;;;;;4.92;4.53;;;;;;;;;;751621;76;26771;-85
2022/02/08 01:58:42;;;;;;;5.28;4.22;;;;;;;;;;758319;77;26390;-83
2022/02/08 01:59:45;;;;;;;4.67;4.28;;;;;;;;;;760900;77;24699;-83
2022/02/08 02:00:47;;;;;;;4.50;4.10;;;;;;;;;;751696;77;26332;-83
2022/02/08 02:01:50;;;;;;;4.70;4.40;;;;;;;;;;749451;77;26345;-84
2022/02/08 02:02:53;;;;;;;4.80;4.30;;;;;;;;;;753090;78;26451;-83
2022/02/08 02:03:56;;;;;;;4.65;4.25;;;;;;;;;;749178;78;26353;-83
2022/02/08 02:05:00;;;;;;;5.22;4.80;;;;;;;;;;752644;77;27265;-84
2022/02/08 02:06:03;;;;;;;5.17;4.78;;;;;;;;;;756659;77;26386;-82
2022/02/08 02:07:05;;;;;;;5.22;4.83;;;;;;;;;;757794;77;26317;-84
2022/02/08 02:08:08;;;;;;;4.97;4.58;;;;;;;;;;757810;77;26374;-84
2022/02/08 02:09:11;;;;;;;5.00;4.60;;;;;;;;;;759976;76;26385;-84
2022/02/08 02:10:15;;;;;;;5.42;5.03;;;;;;;;;;760203;76;26326;-82
2022/02/08 02:11:18;;;;;;;4.60;4.30;;;;;;;;;;757834;78;26394;-85
2022/02/08 02:12:20;;;;;;;5.62;5.22;;;;;;;;;;750776;77;26433;-83
2022/02/08 02:14:27;;;;;;;5.40;5.00;;;;;;;;;;752566;76;26852;-87
2022/02/08 02:15:32;;;;;;;6.05;4.70;;;;;;;;;;756536;76;26332;-84
2022/02/08 02:16:53;;;;;;;4.80;4.45;;;;;;;;;;747604;78;26329;-84
2022/02/08 02:17:48;;;;;;;5.05;4.65;;;;;;;;;;748706;78;26395;-82
2022/02/08 02:18:50;;;;;;;5.10;4.70;;;;;;;;;;757332;77;26371;-82
2022/02/08 02:19:53;;;;;;;4.97;4.62;;;;;;;;;;756585;77;26332;-82
2022/02/08 02:20:56;;;;;;;4.60;4.20;;;;;;;;;;750218;78;26363;-82
2022/02/08 02:22:02;;;;;;;5.12;4.72;;;;;;;;;;756100;77;26376;-81
2022/02/08 02:23:05;;;;;;;4.58;4.28;;;;;;;;;;751645;77;26766;-81
2022/02/08 02:24:07;;;;;;;5.40;5.00;;;;;;;;;;746713;78;26384;-83
2022/02/08 02:25:21;;;;;;;4.55;4.25;;;;;;;;;;752385;76;26301;-81
2022/02/08 02:26:24;;;;;;;7.53;5.72;;;;;;;;;;757224;77;26278;-82
2022/02/08 02:27:26;;;;;;;5.67;5.00;;;;;;;;;;758092;77;26375;-83
2022/02/08 02:28:30;;;;;;;5.15;4.75;;;;;;;;;;756225;76;26340;-83
2022/02/08 02:29:33;;;;;;;5.37;4.95;;;;;;;;;;762293;76;26337;-84
2022/02/08 02:30:36;;;;;;;5.08;4.67;;;;;;;;;;755537;77;26312;-83
2022/02/08 02:31:39;;;;;;;5.42;4.92;;;;;;;;;;762890;77;26519;-82
2022/02/08 02:32:42;;;;;;;5.22;4.72;;;;;;;;;;761981;76;26342;-84
2022/02/08 02:33:44;;;;;;;5.00;4.65;;;;;;;;;;760566;76;26754;-84
2022/02/08 02:34:48;;;;;;;5.15;4.75;;;;;;;;;;752656;76;26332;-83
2022/02/08 02:35:51;;;;;;;4.90;4.50;;;;;;;;;;748723;78;26439;-85
2022/02/08 02:36:54;;;;;;;5.00;4.60;;;;;;;;;;757509;77;26379;-84
2022/02/08 02:37:59;;;;;;;5.72;5.22;;;;;;;;;;762644;77;26328;-83
2022/02/08 02:39:02;;;;;;;5.33;4.92;;;;;;;;;;759373;76;26453;-81
2022/02/08 02:40:05;;;;;;;5.37;4.87;;;;;;;;;;762523;77;26386;-82
2022/02/08 02:41:08;;;;;;;5.75;5.03;;;;;;;;;;758028;78;27208;-79
2022/02/08 02:42:12;;;;;;;5.53;5.12;;;;;;;;;;758019;77;24736;-81
2022/02/08 02:43:15;;;;;;;5.10;4.60;;;;;;;;;;758031;78;26337;-82
2022/02/08 02:44:21;;;;;;;5.67;5.17;;;;;;;;;;758018;77;26360;-82
2022/02/08 02:45:22;;;;;;;5.40;4.95;;;;;;;;;;755346;77;26265;-84
2022/02/08 02:46:25;;;;;;;6.10;5.60;;;;;;;;;;758063;77;26771;-84
2022/02/08 02:47:30;;;;;;;5.22;4.83;;;;;;;;;;762005;76;26888;-81
2022/02/08 02:48:32;;;;;;;4.95;4.60;;;;;;;;;;762488;76;26851;-81
2022/02/08 02:49:35;;;;;;;5.55;5.05;;;;;;;;;;757915;77;26444;-84
2022/02/08 02:50:38;;;;;;;5.15;4.75;;;;;;;;;;757905;77;26305;-82
2022/02/08 02:51:41;;;;;;;5.85;5.35;;;;;;;;;;757839;77;26829;-83
2022/02/08 02:52:44;;;;;;;4.95;4.65;;;;;;;;;;757980;77;26325;-83
2022/02/08 02:53:47;;;;;;;5.20;4.90;;;;;;;;;;755455;77;26976;-82
2022/02/08 02:54:49;;;;;;;5.20;4.80;;;;;;;;;;757287;77;26332;-81
2022/02/08 02:55:52;;;;;;;4.97;4.60;;;;;;;;;;759018;77;26379;-81
2022/02/08 02:57:00;;;;;;;5.80;5.15;;;;;;;;;;759899;76;26378;-83
2022/02/08 02:57:59;;;;;;;5.35;5.05;;;;;;;;;;749285;78;26277;-83
2022/02/08 02:59:04;;;;;;;5.55;5.05;;;;;;;;;;755123;77;26317;-85
2022/02/08 03:00:11;;;;;;;5.37;5.08;;;;;;;;;;757787;77;26821;-83
2022/02/08 03:02:32;;;;;;;5.42;4.92;;;;;;;;;;758115;76;26335;-84
2022/02/08 03:03:41;;;;;;;5.62;4.95;;;;;;;;;;757114;78;26382;-82
2022/02/08 03:04:49;;;;;;;5.20;4.80;;;;;;;;;;750694;77;26277;-83
2022/02/08 03:06:00;;;;;;;4.83;4.42;;;;;;;;;;751082;78;26392;-85
2022/02/08 03:17:38;;;;;;;5.03;4.50;;;;;;;;;;758214;77;26341;-83
2022/02/08 03:18:37;;;;;;;5.12;4.75;;;;;;;;;;754797;76;26340;-84
2022/02/08 03:19:35;;;;;;;4.42;4.12;;;;;;;;;;752340;78;26255;-82
2022/02/08 03:20:39;;;;;;;4.90;4.60;;;;;;;;;;764571;77;26264;-79
2022/02/08 03:21:42;;;;;;;5.30;4.90;;;;;;;;;;749653;77;26362;-80
2022/02/08 03:22:45;;;;;;;5.15;4.75;;;;;;;;;;760599;76;26304;-80
2022/02/08 03:23:47;;;;;;;5.10;4.70;;;;;;;;;;760277;77;26301;-81
2022/02/08 03:24:50;;;;;;;5.20;4.80;;;;;;;;;;748708;78;26427;-80
2022/02/08 03:25:53;;;;;;;5.30;4.83;;;;;;;;;;756928;77;26343;-82
2022/02/08 03:26:55;;;;;;;5.30;4.85;;;;;;;;;;759551;77;26281;-80
2022/02/08 03:27:58;;;;;;;5.25;4.75;;;;;;;;;;759714;77;26313;-80
2022/02/08 03:29:01;;;;;;;5.20;4.80;;;;;;;;;;750532;77;24745;-83
2022/02/08 03:30:04;;;;;;;5.00;4.65;;;;;;;;;;760650;76;24820;-82
2022/02/08 03:31:07;;;;;;;5.85;5.28;;;;;;;;;;750818;77;26794;-80
2022/02/08 03:32:09;;;;;;;5.40;4.97;;;;;;;;;;760388;76;26802;-82
2022/02/08 03:33:12;;;;;;;5.62;4.90;;;;;;;;;;765378;76;26626;-80
2022/02/08 03:34:15;;;;;;;5.12;4.67;;;;;;;;;;765364;76;26343;-83
2022/02/08 03:35:18;;;;;;;5.10;4.70;;;;;;;;;;765342;76;26340;-84
2022/02/08 03:36:20;;;;;;;5.08;4.67;;;;;;;;;;752774;77;24954;-81
2022/02/08 03:37:24;;;;;;;5.08;4.67;;;;;;;;;;764797;76;26320;-81
2022/02/08 03:38:40;;;;;;;4.92;4.53;;;;;;;;;;755415;77;26809;-80
2022/02/08 03:39:43;;;;;;;4.65;4.28;;;;;;;;;;754693;77;27240;-83
2022/02/08 03:40:46;;;;;;;4.80;4.45;;;;;;;;;;760489;76;26765;-83
2022/02/08 03:41:53;;;;;;;5.00;4.60;;;;;;;;;;761894;76;24738;-83
2022/02/08 03:42:59;;;;;;;4.83;4.45;;;;;;;;;;758214;77;26711;-87
2022/02/08 03:44:00;;;;;;;4.87;4.47;;;;;;;;;;757474;77;26379;-83
2022/02/08 03:45:05;;;;;;;4.65;4.35;;;;;;;;;;758022;77;26370;-82
2022/02/08 03:46:14;;;;;;;4.60;4.30;;;;;;;;;;759173;76;26285;-82
2022/02/08 03:47:14;;;;;;;5.28;4.87;;;;;;;;;;756051;77;26352;-81
2022/02/08 03:48:19;;;;;;;4.87;4.47;;;;;;;;;;755846;77;26399;-83
2022/02/08 03:49:21;;;;;;;5.78;5.28;;;;;;;;;;757746;77;26426;-82
2022/02/08 03:50:24;;;;;;;5.12;4.72;;;;;;;;;;760514;76;26495;-84
2022/02/08 03:51:29;;;;;;;5.12;4.70;;;;;;;;;;754238;77;24705;-85
2022/02/08 03:52:31;;;;;;;5.65;5.20;;;;;;;;;;748907;78;24793;-83
2022/02/08 03:53:34;;;;;;;4.92;4.50;;;;;;;;;;758834;76;26409;-85
2022/02/08 03:54:37;;;;;;;4.75;4.35;;;;;;;;;;751968;78;24687;-84
2022/02/08 03:55:40;;;;;;;5.08;4.67;;;;;;;;;;757942;77;26328;-84
2022/02/08 03:56:42;;;;;;;5.10;4.70;;;;;;;;;;757936;77;24416;-87
2022/02/08 03:57:45;;;;;;;5.62;4.60;;;;;;;;;;755138;76;26368;-84
2022/02/08 03:58:54;;;;;;;5.37;4.95;;;;;;;;;;747589;79;26348;-86
2022/02/08 03:59:54;;;;;;;5.08;4.67;;;;;;;;;;747135;78;26290;-80
2022/02/08 04:03:30;;;;;;;4.83;4.42;;;;;;;;;;762045;76;26309;-85
2022/02/08 04:05:43;;;;;;;5.80;5.25;;;;;;;;;;766472;76;26371;-84
2022/02/08 04:06:46;;;;;;;4.50;4.20;;;;;;;;;;752626;77;26301;-83
2022/02/08 04:08:01;;;;;;;5.28;4.87;;;;;;;;;;760940;76;26333;-83
2022/02/08 04:09:01;;;;;;;5.33;4.95;;;;;;;;;;758251;77;26409;-85
2022/02/08 04:10:05;;;;;;;7.45;4.87;;;;;;;;;;758735;77;26275;-83
2022/02/08 04:11:09;;;;;;;4.72;4.20;;;;;;;;;;751567;77;26343;-83
2022/02/08 04:12:19;;;;;;;4.85;4.45;;;;;;;;;;753651;78;26304;-83
2022/02/08 04:13:24;;;;;;;5.15;4.70;;;;;;;;;;731697;80;24845;-84
2022/02/08 04:14:35;;;;;;;5.60;5.17;;;;;;;;;;758693;77;26356;-82
2022/02/08 04:15:44;;;;;;;4.87;4.58;;;;;;;;;;758714;77;26313;-82
2022/02/08 04:16:39;;;;;;;4.70;4.40;;;;;;;;;;758812;76;26296;-83
2022/02/08 04:33:53;;;;;;;4.97;4.62;;;;;;;;;;759138;77;26376;-82
2022/02/08 04:34:41;;;;;;;5.90;4.95;;;;;;;;;;752516;76;26763;-83
2022/02/08 04:36:28;;;;;;;4.50;4.20;;;;;;;;;;761802;76;26412;-87
2022/02/08 04:37:59;;;;;;;5.40;4.90;;;;;;;;;;748533;78;26367;-83
2022/02/08 04:39:11;;;;;;;5.10;4.60;;;;;;;;;;752649;78;26285;-85
2022/02/08 04:41:11;;;;;;;4.60;4.30;;;;;;;;;;758458;77;26353;-84
2022/02/08 04:44:15;;;;;;;4.47;4.08;;;;;;;;;;747403;77;26324;-82
2022/02/08 04:44:26;;;;;;;4.78;4.37;;;;;;;;;;733133;79;26381;-81
2022/02/08 04:46:44;;;;;;;4.45;4.12;;;;;;;;;;758149;77;26669;-84
2022/02/08 04:47:47;;;;;;;4.70;4.40;;;;;;;;;;756168;77;26301;-82
2022/02/08 04:48:51;;;;;;;5.30;4.80;;;;;;;;;;757829;76;26285;-84
2022/02/08 04:49:53;;;;;;;5.25;4.78;;;;;;;;;;757528;77;26289;-86
2022/02/08 04:51:05;;;;;;;5.60;5.10;;;;;;;;;;751986;77;26325;-82
2022/02/08 04:52:03;;;;;;;5.62;5.12;;;;;;;;;;746362;77;26317;-82
2022/02/08 04:53:13;;;;;;;6.72;6.00;;;;;;;;;;750416;77;26316;-82
2022/02/08 04:54:18;;;;;;;5.42;5.03;;;;;;;;;;754047;78;26810;-83
2022/02/08 04:56:50;;;;;;;6.33;4.90;;;;;;;;;;750612;78;24712;-83
2022/02/08 04:58:06;;;;;;;5.25;4.55;;;;;;;;;;754005;78;26394;-84
2022/02/08 04:59:09;;;;;;;5.30;4.80;;;;;;;;;;754910;78;26600;-83
2022/02/08 05:00:18;;;;;;;5.03;4.45;;;;;;;;;;755931;78;26324;-84
2022/02/08 05:01:22;;;;;;;5.20;4.80;;;;;;;;;;745286;78;26338;-83
2022/02/08 05:26:49;;;;;;;5.37;4.50;;;;;;;;;;758797;76;26382;-84
2022/02/08 05:35:17;;;;;;;3.98;3.67;;;;;;;;;;765629;76;26351;-83
2022/02/08 05:35:41;;;;;;;5.20;4.60;;;;;;;;;;749658;78;26399;-82
2022/02/08 05:40:49;;;;;;;5.00;4.50;;;;;;;;;;755527;76;26307;-83
2022/02/08 05:41:49;;;;;;;5.47;4.50;;;;;;;;;;756447;77;26912;-84
2022/02/08 05:47:28;;;;;;;4.90;4.50;;;;;;;;;;733536;81;26400;-85
2022/02/08 05:48:33;;;;;;;4.83;4.50;;;;;;;;;;747821;77;26407;-84
2022/02/08 05:49:51;;;;;;;5.20;4.70;;;;;;;;;;759409;77;26328;-84
2022/02/08 05:50:57;;;;;;;5.00;3.95;;;;;;;;;;754330;77;26324;-85
2022/02/08 05:54:04;;;;;;;5.12;4.70;;;;;;;;;;762016;76;26335;-82
2022/02/08 05:55:07;;;;;;;4.28;3.98;;;;;;;;;;766663;76;26347;-82
2022/02/08 05:56:10;;;;;;;4.80;4.40;;;;;;;;;;763268;77;26331;-83
2022/02/08 05:57:13;;;;;;;5.12;4.72;;;;;;;;;;752986;77;26327;-82
2022/02/08 05:58:16;;;;;;;5.87;5.22;;;;;;;;;;761663;76;26868;-83
2022/02/08 05:59:18;;;;;;;4.47;4.08;;;;;;;;;;761817;78;26307;-83
2022/02/08 06:00:28;;;;;;;4.87;4.50;;;;;;;;;;751948;77;26787;-83
2022/02/08 06:01:29;;;;;;;5.30;4.75;;;;;;;;;;757944;77;26287;-82
2022/02/08 06:02:30;;;;;;;5.35;4.85;;;;;;;;;;761851;77;26311;-83
2022/02/08 06:03:33;;;;;;;5.90;5.33;;;;;;;;;;761155;76;26407;-80
2022/02/08 06:04:37;;;;;;;5.20;4.70;;;;;;;;;;764058;77;24392;-83
2022/02/08 06:05:39;;;;;;;6.17;4.92;;;;;;;;;;763900;77;26354;-86
2022/02/08 06:06:42;;;;;;;5.97;5.37;;;;;;;;;;767156;76;26312;-85
2022/02/08 06:07:45;;;;;;;5.22;4.72;;;;;;;;;;759769;76;26354;-84
2022/02/08 06:08:48;;;;;;;7.28;4.80;;;;;;;;;;761912;77;26326;-85
2022/02/08 06:09:55;;;;;;;4.85;4.45;;;;;;;;;;762902;78;26323;-84
2022/02/08 06:11:12;;;;;;;4.97;4.58;;;;;;;;;;759330;78;26390;-86
2022/02/08 06:12:02;;;;;;;4.60;4.20;;;;;;;;;;752360;78;26353;-84
2022/02/08 06:13:05;;;;;;;5.40;4.90;;;;;;;;;;761384;77;26317;-83
2022/02/08 06:14:08;;;;;;;5.15;4.75;;;;;;;;;;763868;76;26335;-84
2022/02/08 06:15:13;;;;;;;5.08;4.58;;;;;;;;;;758011;77;26327;-87
2022/02/08 06:16:19;;;;;;;6.25;5.35;;;;;;;;;;755361;77;26408;-86
2022/02/08 06:17:22;;;;;;;5.95;5.35;;;;;;;;;;761255;77;26271;-84
2022/02/08 06:18:27;;;;;;;6.55;5.87;;;;;;;;;;764603;76;26350;-84
2022/02/08 06:19:30;;;;;;;6.20;5.60;;;;;;;;;;759759;78;26351;-85
2022/02/08 06:20:32;;;;;;;5.05;4.65;;;;;;;;;;761739;77;26347;-84
2022/02/08 06:21:35;;;;;;;5.75;4.97;;;;;;;;;;762081;77;26370;-85
2022/02/08 06:22:40;;;;;;;6.12;5.53;;;;;;;;;;753840;77;26315;-84
2022/02/08 06:23:42;;;;;;;7.22;5.40;;;;;;;;;;752779;78;26384;-85
2022/02/08 06:24:45;;;;;;;5.95;5.35;;;;;;;;;;758521;78;26316;-82
2022/02/08 06:25:47;;;;;;;5.85;5.28;;;;;;;;;;755077;78;26407;-85
2022/02/08 06:26:50;;;;;;;5.65;5.15;;;;;;;;;;754298;77;26365;-85
2022/02/08 06:27:53;;;;;;;6.33;5.70;;;;;;;;;;746206;78;27161;-85
2022/02/08 06:29:22;;;;;;;6.12;5.30;;;;;;;;;;756866;76;26366;-84
2022/02/08 06:30:00;;;;;;;7.40;5.00;;;;;;;;;;747691;78;26356;-83
2022/02/08 06:31:03;;;;;;;5.83;5.33;;;;;;;;;;754568;77;26337;-83
2022/02/08 06:32:05;;;;;;;5.45;5.05;;;;;;;;;;754544;77;26312;-84
2022/02/08 06:33:12;;;;;;;6.47;5.37;;;;;;;;;;763973;76;26268;-82
2022/02/08 06:34:20;;;;;;;6.20;5.03;;;;;;;;;;760860;76;26331;-84
2022/02/08 06:35:23;;;;;;;6.20;5.10;;;;;;;;;;752396;76;26816;-85
2022/02/08 06:36:24;;;;;;;5.67;5.08;;;;;;;;;;751474;77;26322;-83
2022/02/08 06:37:31;;;;;;;8.38;5.62;;;;;;;;;;750504;77;26377;-83
2022/02/08 06:38:31;;;;;;;5.55;5.03;;;;;;;;;;760893;78;25066;-81
2022/02/08 06:39:36;;;;;;;6.10;5.50;;;;;;;;;;760463;76;26290;-83
2022/02/08 06:40:40;;;;;;;4.92;4.50;;;;;;;;;;752083;78;26287;-84
2022/02/08 06:41:43;;;;;;;6.67;5.60;;;;;;;;;;745828;78;26303;-85
2022/02/08 06:42:46;;;;;;;6.55;5.55;;;;;;;;;;761311;76;26403;-83
2022/02/08 06:43:49;;;;;;;7.83;5.37;;;;;;;;;;759874;76;26354;-86
2022/02/08 06:44:52;;;;;;;8.10;5.72;;;;;;;;;;762943;77;26781;-80
2022/02/08 06:45:54;;;;;;;5.95;5.37;;;;;;;;;;762580;77;26412;-83
2022/02/08 06:46:57;;;;;;;6.62;5.30;;;;;;;;;;758833;77;26316;-82
2022/02/08 06:48:02;;;;;;;5.55;5.12;;;;;;;;;;759206;77;26809;-82
2022/02/08 06:49:04;;;;;;;5.92;5.03;;;;;;;;;;766736;77;26264;-83
2022/02/08 06:50:07;;;;;;;5.67;5.17;;;;;;;;;;766799;76;26257;-84
2022/02/08 06:51:10;;;;;;;6.58;5.97;;;;;;;;;;766738;76;26283;-83
2022/02/08 06:52:12;;;;;;;5.58;4.90;;;;;;;;;;767424;76;26299;-85
2022/02/08 06:53:15;;;;;;;6.03;5.25;;;;;;;;;;759966;77;26299;-82
2022/02/08 06:54:18;;;;;;;5.90;5.33;;;;;;;;;;751892;76;26651;-83
2022/02/08 06:55:24;;;;;;;8.55;5.58;;;;;;;;;;758745;77;26308;-83
2022/02/08 06:56:25;;;;;;;6.22;5.62;;;;;;;;;;747887;77;26343;-84
2022/02/08 06:57:30;;;;;;;6.00;5.40;;;;;;;;;;758655;76;26569;-85
2022/02/08 06:58:47;;;;;;;7.75;6.05;;;;;;;;;;754921;76;26392;-83
2022/02/08 06:59:38;;;;;;;6.30;5.30;;;;;;;;;;729833;79;26387;-84
2022/02/08 07:00:43;;;;;;;6.30;5.70;;;;;;;;;;763156;76;26337;-84
2022/02/08 07:01:46;;;;;;;6.20;5.60;;;;;;;;;;766478;76;26811;-85
2022/02/08 07:02:49;;;;;;;5.78;5.17;;;;;;;;;;757502;77;26331;-82
2022/02/08 07:03:52;;;;;;;6.80;6.10;;;;;;;;;;752893;77;24753;-83
2022/02/08 07:04:55;;;;;;;5.40;4.90;;;;;;;;;;758253;76;26375;-85
2022/02/08 07:05:58;;;;;;;6.53;5.87;;;;;;;;;;759546;76;26351;-85
2022/02/08 07:07:00;;;;;;;6.92;5.30;;;;;;;;;;761723;76;26317;-85
2022/02/08 07:08:06;;;;;;;6.25;5.65;;;;;;;;;;760357;78;26421;-85
2022/02/08 07:09:09;;;;;;;5.95;5.45;;;;;;;;;;755466;77;26330;-84
2022/02/08 07:10:11;;;;;;;6.30;5.62;;;;;;;;;;763770;76;26256;-84
2022/02/08 07:11:16;;;;;;;6.25;5.65;;;;;;;;;;763182;76;26770;-84
2022/02/08 07:12:19;;;;;;;6.35;5.30;;;;;;;;;;759703;77;24690;-84
2022/02/08 07:13:22;;;;;;;8.35;5.90;;;;;;;;;;758496;77;24669;-84
2022/02/08 07:14:29;;;;;;;6.42;5.83;;;;;;;;;;758568;76;26295;-85
2022/02/08 07:15:29;;;;;;;9.33;6.45;;;;;;;;;;758070;76;26866;-87
2022/02/08 07:16:33;;;;;;;6.72;5.85;;;;;;;;;;763544;76;26303;-83
2022/02/08 07:17:35;;;;;;;7.72;6.55;;;;;;;;;;764658;76;26413;-83
2022/02/08 07:18:38;;;;;;;6.97;6.12;;;;;;;;;;762453;76;26311;-82
2022/02/08 07:19:41;;;;;;;7.25;6.60;;;;;;;;;;762386;76;26808;-81
2022/02/08 07:20:44;;;;;;;7.20;6.33;;;;;;;;;;752570;77;26981;-81
2022/02/08 07:21:46;;;;;;;6.83;6.17;;;;;;;;;;757611;77;26759;-79
2022/02/08 07:22:49;;;;;;;6.10;5.50;;;;;;;;;;763237;76;26267;-82
2022/02/08 07:23:52;;;;;;;9.75;6.50;;;;;;;;;;760881;76;26377;-80
2022/02/08 07:24:55;;;;;;;7.65;6.50;;;;;;;;;;761086;77;26295;-82
2022/02/08 07:25:58;;;;;;;6.60;5.78;;;;;;;;;;753200;77;26834;-83
2022/02/08 07:27:01;;;;;;;7.70;6.40;;;;;;;;;;748052;78;26330;-80
2022/02/08 07:28:03;;;;;;;6.83;5.90;;;;;;;;;;743521;77;26796;-82
2022/02/08 07:29:06;;;;;;;6.10;5.50;;;;;;;;;;759869;77;26315;-81
2022/02/08 07:30:11;;;;;;;9.40;5.83;;;;;;;;;;766611;76;26816;-83
2022/02/08 07:31:23;;;;;;;7.20;5.78;;;;;;;;;;766600;76;26308;-85
2022/02/08 07:32:29;;;;;;;7.58;5.78;;;;;;;;;;760485;77;26402;-85
2022/02/08 07:33:26;;;;;;;6.28;5.28;;;;;;;;;;757502;77;24958;-85
2022/02/08 07:34:46;;;;;;;5.87;5.28;;;;;;;;;;759301;77;26728;-85
2022/02/08 07:36:00;;;;;;;7.87;5.67;;;;;;;;;;757440;77;24702;-81
2022/02/08 07:37:13;;;;;;;6.53;5.90;;;;;;;;;;745471;77;26322;-83
2022/02/08 07:38:20;;;;;;;6.47;5.70;;;;;;;;;;746625;77;24966;-83
2022/02/08 07:39:25;;;;;;;6.10;5.15;;;;;;;;;;746367;77;26365;-84
2022/02/08 07:41:34;;;;;;;5.05;4.50;;;;;;;;;;746128;77;26994;-83
2022/02/08 07:41:42;;;;;;;6.30;4.90;;;;;;;;;;752667;77;26333;-86
2022/02/08 07:42:41;;;;;;;6.87;4.80;;;;;;;;;;743868;79;26303;-81
2022/02/08 07:43:49;;;;;;;7.00;5.67;;;;;;;;;;743077;78;26363;-81
2022/02/08 07:44:48;;;;;;;6.10;5.50;;;;;;;;;;743948;78;26355;-84
2022/02/08 07:45:50;;;;;;;7.72;6.40;;;;;;;;;;736044;80;27023;-83
2022/02/08 07:46:53;;;;;;;6.10;5.35;;;;;;;;;;737450;79;26311;-82
2022/02/08 07:47:56;;;;;;;7.83;6.08;;;;;;;;;;740355;79;26398;-83
2022/02/08 07:49:01;;;;;;;7.60;5.45;;;;;;;;;;737195;80;26407;-82
2022/02/08 07:50:05;;;;;;;7.15;5.70;;;;;;;;;;730835;79;26298;-81
2022/02/08 07:51:09;;;;;;;6.12;5.60;;;;;;;;;;761375;77;26250;-82
2022/02/08 07:52:12;;;;;;;5.85;5.17;;;;;;;;;;756144;77;26335;-83
2022/02/08 07:53:15;;;;;;;5.12;4.72;;;;;;;;;;759348;77;26315;-81
2022/02/08 07:54:17;;;;;;;6.17;5.55;;;;;;;;;;752210;77;26330;-83
2022/02/08 07:55:22;;;;;;;6.10;5.35;;;;;;;;;;747100;77;26749;-83
2022/02/08 07:56:25;;;;;;;5.67;5.15;;;;;;;;;;745351;77;26338;-84
2022/02/08 07:57:28;;;;;;;6.22;5.62;;;;;;;;;;751514;77;26369;-83
2022/02/08 07:58:31;;;;;;;6.15;5.53;;;;;;;;;;732809;80;24792;-84
2022/02/08 07:59:33;;;;;;;6.30;5.15;;;;;;;;;;759697;77;26825;-85
2022/02/08 08:00:36;;;;;;;5.87;5.08;;;;;;;;;;765650;77;26302;-83